ARG1519 SASJ-SABE
Flight info
| Callsign | ARG1519 |
|---|---|
| Flight time | 1h 48m |
| Altitude | 37000 |
| Route | ASODO2C ASODO UT672 MULTA UW24 SNT SNT9R |
| Aircraft | B738/M-SDE2E3FGHIRWXY/LB1 |
Departure
| Time | 2026-05-08 22:23 |
|---|---|
| Airport | Gobernador Horacio Guzman International Airport (SASJ) |
Arrival
| Time | 2026-05-09 00:12 |
|---|---|
| Airport | Aeroparque Jorge Newbery (SABE) |
| Time | Latitude | Longitude | Altitude | Speed | Heading |
|---|---|---|---|---|---|
| 2026-05-08 21:42 | -24.38625 | -65.09467 | 2996 ft | 0 kts | 60° |
| 2026-05-08 21:54 | -24.38626 | -65.09467 | 2996 ft | 0 kts | 60° |
| 2026-05-08 22:03 | -24.38626 | -65.09468 | 2996 ft | 0 kts | 60° |
| 2026-05-08 22:14 | -24.38627 | -65.09470 | 2996 ft | 2 kts | 60° |
| 2026-05-08 22:14 | -24.38638 | -65.09491 | 2996 ft | 4 kts | 69° |
| 2026-05-08 22:15 | -24.38639 | -65.09515 | 2996 ft | 4 kts | 131° |
| 2026-05-08 22:15 | -24.38621 | -65.09530 | 2996 ft | 1 kts | 150° |
| 2026-05-08 22:15 | -24.38618 | -65.09532 | 2996 ft | 1 kts | 150° |
| 2026-05-08 22:17 | -24.38617 | -65.09532 | 2996 ft | 0 kts | 150° |
| 2026-05-08 22:17 | -24.38620 | -65.09531 | 2996 ft | 2 kts | 150° |
| 2026-05-08 22:18 | -24.38655 | -65.09508 | 2996 ft | 9 kts | 149° |
| 2026-05-08 22:18 | -24.38710 | -65.09476 | 2996 ft | 9 kts | 162° |
| 2026-05-08 22:18 | -24.38761 | -65.09510 | 2996 ft | 11 kts | 237° |
| 2026-05-08 22:18 | -24.38803 | -65.09588 | 2996 ft | 13 kts | 240° |
| 2026-05-08 22:19 | -24.38850 | -65.09677 | 2996 ft | 13 kts | 239° |
| 2026-05-08 22:19 | -24.38895 | -65.09763 | 2997 ft | 13 kts | 241° |
| 2026-05-08 22:19 | -24.38947 | -65.09840 | 2997 ft | 13 kts | 213° |
| 2026-05-08 22:19 | -24.39031 | -65.09854 | 2998 ft | 12 kts | 181° |
| 2026-05-08 22:20 | -24.39119 | -65.09841 | 2999 ft | 14 kts | 169° |
| 2026-05-08 22:20 | -24.39235 | -65.09799 | 2998 ft | 21 kts | 154° |
| 2026-05-08 22:20 | -24.39383 | -65.09707 | 2998 ft | 27 kts | 149° |
| 2026-05-08 22:20 | -24.39542 | -65.09606 | 2998 ft | 26 kts | 150° |
| 2026-05-08 22:21 | -24.39690 | -65.09513 | 2998 ft | 24 kts | 149° |
| 2026-05-08 22:21 | -24.39830 | -65.09425 | 2999 ft | 23 kts | 149° |
| 2026-05-08 22:21 | -24.39975 | -65.09334 | 2999 ft | 27 kts | 150° |
| 2026-05-08 22:21 | -24.40150 | -65.09224 | 2998 ft | 30 kts | 150° |
| 2026-05-08 22:22 | -24.40319 | -65.09108 | 2996 ft | 28 kts | 126° |
| 2026-05-08 22:22 | -24.40400 | -65.09048 | 2996 ft | 12 kts | 242° |
| 2026-05-08 22:22 | -24.40345 | -65.09101 | 2996 ft | 11 kts | 328° |
| 2026-05-08 22:22 | -24.40338 | -65.09106 | 2996 ft | 0 kts | 329° |
| 2026-05-08 22:23 | -24.40167 | -65.09215 | 2998 ft | 65 kts | 330° |
| 2026-05-08 22:23 | -24.39564 | -65.09593 | 2998 ft | 132 kts | 330° |
| 2026-05-08 22:23 | -24.38600 | -65.10198 | 3010 ft | 186 kts | 332° |
| 2026-05-08 22:23 | -24.37448 | -65.10930 | 3705 ft | 191 kts | 333° |
| 2026-05-08 22:24 | -24.36306 | -65.11636 | 4683 ft | 187 kts | 334° |
| 2026-05-08 22:24 | -24.35139 | -65.12362 | 5211 ft | 203 kts | 334° |
| 2026-05-08 22:24 | -24.33825 | -65.13180 | 5448 ft | 228 kts | 334° |
| 2026-05-08 22:24 | -24.32440 | -65.14137 | 5862 ft | 249 kts | 321° |
| 2026-05-08 22:25 | -24.31406 | -65.15770 | 6356 ft | 271 kts | 295° |
| 2026-05-08 22:25 | -24.31019 | -65.17828 | 7125 ft | 283 kts | 276° |
| 2026-05-08 22:25 | -24.31009 | -65.20001 | 7991 ft | 285 kts | 271° |
| 2026-05-08 22:25 | -24.31386 | -65.22127 | 8918 ft | 288 kts | 245° |
| 2026-05-08 22:26 | -24.32624 | -65.23831 | 9891 ft | 289 kts | 218° |
| 2026-05-08 22:26 | -24.34426 | -65.24806 | 10695 ft | 292 kts | 197° |
| 2026-05-08 22:26 | -24.36405 | -65.25253 | 11466 ft | 295 kts | 193° |
| 2026-05-08 22:26 | -24.38444 | -65.25647 | 12171 ft | 300 kts | 193° |
| 2026-05-08 22:27 | -24.40508 | -65.26056 | 12886 ft | 303 kts | 194° |
| 2026-05-08 22:27 | -24.42594 | -65.26485 | 13609 ft | 307 kts | 195° |
| 2026-05-08 22:27 | -24.44690 | -65.26913 | 14337 ft | 305 kts | 192° |
| 2026-05-08 22:27 | -24.46838 | -65.26755 | 14990 ft | 319 kts | 171° |
| 2026-05-08 22:28 | -24.48963 | -65.25757 | 15181 ft | 347 kts | 156° |
| 2026-05-08 22:28 | -24.51104 | -65.24382 | 15325 ft | 366 kts | 155° |
| 2026-05-08 22:28 | -24.53355 | -65.22925 | 15441 ft | 384 kts | 155° |
| 2026-05-08 22:28 | -24.55699 | -65.21427 | 15702 ft | 394 kts | 155° |
| 2026-05-08 22:29 | -24.58086 | -65.19927 | 16171 ft | 397 kts | 156° |
| 2026-05-08 22:29 | -24.60494 | -65.18423 | 16756 ft | 398 kts | 156° |
| 2026-05-08 22:29 | -24.62907 | -65.16919 | 17315 ft | 399 kts | 156° |
| 2026-05-08 22:29 | -24.65302 | -65.15427 | 17830 ft | 402 kts | 157° |
| 2026-05-08 22:30 | -24.67741 | -65.13906 | 18323 ft | 404 kts | 157° |
| 2026-05-08 22:30 | -24.70196 | -65.12374 | 18788 ft | 407 kts | 158° |
| 2026-05-08 22:30 | -24.72659 | -65.10834 | 19271 ft | 408 kts | 158° |
| 2026-05-08 22:30 | -24.75132 | -65.09289 | 19743 ft | 410 kts | 158° |
| 2026-05-08 22:31 | -24.77621 | -65.07734 | 20180 ft | 412 kts | 158° |
| 2026-05-08 22:31 | -24.80131 | -65.06166 | 20536 ft | 418 kts | 158° |
| 2026-05-08 22:31 | -24.82684 | -65.04572 | 20821 ft | 424 kts | 158° |
| 2026-05-08 22:31 | -24.85257 | -65.02963 | 21224 ft | 427 kts | 158° |
| 2026-05-08 22:32 | -24.87840 | -65.01344 | 21682 ft | 428 kts | 158° |
| 2026-05-08 22:32 | -24.90439 | -64.99713 | 22133 ft | 430 kts | 158° |
| 2026-05-08 22:32 | -24.93013 | -64.98099 | 22535 ft | 432 kts | 158° |
| 2026-05-08 22:32 | -24.95635 | -64.96454 | 22922 ft | 436 kts | 159° |
| 2026-05-08 22:33 | -24.98281 | -64.94793 | 23264 ft | 440 kts | 159° |
| 2026-05-08 22:33 | -25.00952 | -64.93116 | 23638 ft | 442 kts | 159° |
| 2026-05-08 22:33 | -25.03633 | -64.91429 | 23985 ft | 444 kts | 159° |
| 2026-05-08 22:33 | -25.06318 | -64.89740 | 24330 ft | 446 kts | 159° |
| 2026-05-08 22:34 | -25.09021 | -64.88041 | 24638 ft | 448 kts | 158° |
| 2026-05-08 22:34 | -25.11736 | -64.86334 | 24939 ft | 451 kts | 158° |
| 2026-05-08 22:34 | -25.14471 | -64.84614 | 25253 ft | 453 kts | 158° |
| 2026-05-08 22:34 | -25.17218 | -64.82885 | 25565 ft | 455 kts | 158° |
| 2026-05-08 22:35 | -25.19977 | -64.81146 | 25904 ft | 458 kts | 158° |
| 2026-05-08 22:35 | -25.22751 | -64.79396 | 26287 ft | 458 kts | 158° |
| 2026-05-08 22:35 | -25.25521 | -64.77647 | 26649 ft | 460 kts | 158° |
| 2026-05-08 22:35 | -25.28275 | -64.75909 | 26924 ft | 463 kts | 158° |
| 2026-05-08 22:36 | -25.31080 | -64.74138 | 27183 ft | 465 kts | 158° |
| 2026-05-08 22:36 | -25.33895 | -64.72358 | 27459 ft | 468 kts | 158° |
| 2026-05-08 22:36 | -25.36727 | -64.70566 | 27742 ft | 470 kts | 158° |
| 2026-05-08 22:36 | -25.39567 | -64.68769 | 28016 ft | 472 kts | 158° |
| 2026-05-08 22:37 | -25.42406 | -64.66910 | 28279 ft | 477 kts | 156° |
| 2026-05-08 22:37 | -25.45193 | -64.64880 | 28533 ft | 482 kts | 154° |
| 2026-05-08 22:37 | -25.47954 | -64.62756 | 28851 ft | 485 kts | 153° |
| 2026-05-08 22:37 | -25.50716 | -64.60593 | 29108 ft | 487 kts | 153° |
| 2026-05-08 22:38 | -25.53486 | -64.58426 | 29376 ft | 489 kts | 153° |
| 2026-05-08 22:38 | -25.56280 | -64.56258 | 29633 ft | 490 kts | 154° |
| 2026-05-08 22:38 | -25.59078 | -64.54105 | 29998 ft | 489 kts | 154° |
| 2026-05-08 22:38 | -25.61876 | -64.51962 | 30367 ft | 487 kts | 154° |
| 2026-05-08 22:39 | -25.64658 | -64.49838 | 30771 ft | 484 kts | 154° |
| 2026-05-08 22:39 | -25.67426 | -64.47726 | 31200 ft | 481 kts | 155° |
| 2026-05-08 22:39 | -25.70145 | -64.45651 | 31611 ft | 479 kts | 155° |
| 2026-05-08 22:39 | -25.72884 | -64.43561 | 32030 ft | 476 kts | 155° |
| 2026-05-08 22:40 | -25.75605 | -64.41483 | 32450 ft | 473 kts | 155° |
| 2026-05-08 22:40 | -25.78309 | -64.39417 | 32816 ft | 471 kts | 155° |
| 2026-05-08 22:40 | -25.81007 | -64.37355 | 33132 ft | 470 kts | 155° |
| 2026-05-08 22:40 | -25.83704 | -64.35293 | 33482 ft | 470 kts | 155° |
| 2026-05-08 22:41 | -25.86395 | -64.33235 | 33670 ft | 472 kts | 155° |
| 2026-05-08 22:41 | -25.89109 | -64.31160 | 33872 ft | 474 kts | 155° |
| 2026-05-08 22:41 | -25.91817 | -64.29083 | 34186 ft | 472 kts | 155° |
| 2026-05-08 22:41 | -25.94508 | -64.27015 | 34533 ft | 468 kts | 155° |
| 2026-05-08 22:42 | -25.97182 | -64.24959 | 34816 ft | 467 kts | 155° |
| 2026-05-08 22:42 | -25.99862 | -64.22902 | 35034 ft | 467 kts | 155° |
| 2026-05-08 22:42 | -26.02540 | -64.20846 | 35251 ft | 467 kts | 155° |
| 2026-05-08 22:42 | -26.05211 | -64.18793 | 35508 ft | 466 kts | 155° |
| 2026-05-08 22:43 | -26.07840 | -64.16769 | 35781 ft | 465 kts | 155° |
| 2026-05-08 22:43 | -26.10498 | -64.14733 | 36021 ft | 462 kts | 157° |
| 2026-05-08 22:43 | -26.13245 | -64.12951 | 36224 ft | 452 kts | 163° |
| 2026-05-08 22:43 | -26.16058 | -64.11422 | 36454 ft | 449 kts | 165° |
| 2026-05-08 22:44 | -26.18880 | -64.09918 | 36745 ft | 449 kts | 165° |
| 2026-05-08 22:44 | -26.21679 | -64.08382 | 36969 ft | 449 kts | 164° |
| 2026-05-08 22:44 | -26.24483 | -64.06810 | 36937 ft | 453 kts | 164° |
| 2026-05-08 22:45 | -26.30092 | -64.03641 | 36944 ft | 451 kts | 164° |
| 2026-05-08 22:45 | -26.35700 | -64.00472 | 36958 ft | 452 kts | 164° |
| 2026-05-08 22:46 | -26.41320 | -63.97298 | 36954 ft | 453 kts | 164° |
| 2026-05-08 22:46 | -26.46954 | -63.94113 | 36957 ft | 456 kts | 164° |
| 2026-05-08 22:47 | -26.52614 | -63.90908 | 36956 ft | 456 kts | 164° |
| 2026-05-08 22:47 | -26.58287 | -63.87692 | 36951 ft | 457 kts | 164° |
| 2026-05-08 22:48 | -26.63920 | -63.84495 | 36948 ft | 457 kts | 164° |
| 2026-05-08 22:48 | -26.68672 | -63.81796 | 37008 ft | 457 kts | 164° |
| 2026-05-08 22:49 | -26.74344 | -63.78567 | 36956 ft | 457 kts | 164° |
| 2026-05-08 22:49 | -26.82799 | -63.73732 | 36956 ft | 456 kts | 164° |
| 2026-05-08 22:50 | -26.88452 | -63.70497 | 36953 ft | 455 kts | 164° |
| 2026-05-08 22:50 | -26.94089 | -63.67268 | 37007 ft | 455 kts | 164° |
| 2026-05-08 22:51 | -26.99740 | -63.64028 | 36958 ft | 456 kts | 164° |
| 2026-05-08 22:51 | -27.05401 | -63.60770 | 36955 ft | 457 kts | 163° |
| 2026-05-08 22:52 | -27.11022 | -63.57521 | 36951 ft | 457 kts | 163° |
| 2026-05-08 22:52 | -27.16680 | -63.54245 | 36959 ft | 458 kts | 163° |
| 2026-05-08 22:53 | -27.22346 | -63.50963 | 36960 ft | 459 kts | 163° |
| 2026-05-08 22:53 | -27.28025 | -63.47669 | 36963 ft | 459 kts | 163° |
| 2026-05-08 22:54 | -27.33708 | -63.44368 | 36962 ft | 459 kts | 163° |
| 2026-05-08 22:54 | -27.39386 | -63.41067 | 36959 ft | 460 kts | 163° |
| 2026-05-08 22:55 | -27.45075 | -63.37757 | 36988 ft | 462 kts | 164° |
| 2026-05-08 22:55 | -27.50790 | -63.34428 | 36977 ft | 462 kts | 164° |
| 2026-05-08 22:56 | -27.56481 | -63.31107 | 36966 ft | 463 kts | 164° |
| 2026-05-08 22:56 | -27.62210 | -63.27760 | 36962 ft | 463 kts | 164° |
| 2026-05-08 22:57 | -27.67940 | -63.24409 | 37013 ft | 464 kts | 164° |
| 2026-05-08 22:57 | -27.73693 | -63.21042 | 36978 ft | 465 kts | 164° |
| 2026-05-08 22:58 | -27.79435 | -63.17675 | 36966 ft | 465 kts | 164° |
| 2026-05-08 22:58 | -27.85179 | -63.14303 | 36970 ft | 464 kts | 164° |
| 2026-05-08 22:59 | -27.90904 | -63.10939 | 37018 ft | 465 kts | 164° |
| 2026-05-08 22:59 | -27.96655 | -63.07559 | 36983 ft | 466 kts | 164° |
| 2026-05-08 23:00 | -28.02378 | -63.04188 | 36976 ft | 467 kts | 164° |
| 2026-05-08 23:00 | -28.08161 | -63.00778 | 36979 ft | 469 kts | 164° |
| 2026-05-08 23:01 | -28.13951 | -62.97359 | 37041 ft | 470 kts | 165° |
| 2026-05-08 23:01 | -28.19757 | -62.93927 | 36979 ft | 471 kts | 165° |
| 2026-05-08 23:02 | -28.25568 | -62.90484 | 36972 ft | 470 kts | 165° |
| 2026-05-08 23:02 | -28.31319 | -62.87061 | 36973 ft | 469 kts | 165° |
| 2026-05-08 23:03 | -28.37086 | -62.83622 | 36971 ft | 467 kts | 165° |
| 2026-05-08 23:03 | -28.42830 | -62.80193 | 36969 ft | 466 kts | 165° |
| 2026-05-08 23:04 | -28.48574 | -62.76763 | 36988 ft | 466 kts | 165° |
| 2026-05-08 23:04 | -28.54315 | -62.73332 | 36988 ft | 467 kts | 164° |
| 2026-05-08 23:05 | -28.60076 | -62.69884 | 37085 ft | 469 kts | 164° |
| 2026-05-08 23:05 | -28.65876 | -62.66409 | 36993 ft | 472 kts | 164° |
| 2026-05-08 23:06 | -28.71663 | -62.62934 | 36984 ft | 474 kts | 164° |
| 2026-05-08 23:06 | -28.77497 | -62.59423 | 36974 ft | 474 kts | 164° |
| 2026-05-08 23:07 | -28.83335 | -62.55907 | 37027 ft | 475 kts | 164° |
| 2026-05-08 23:07 | -28.89182 | -62.52383 | 36978 ft | 475 kts | 164° |
| 2026-05-08 23:08 | -28.95034 | -62.48851 | 36971 ft | 475 kts | 164° |
| 2026-05-08 23:08 | -29.00873 | -62.45321 | 36979 ft | 475 kts | 164° |
| 2026-05-08 23:09 | -29.06717 | -62.41785 | 37027 ft | 475 kts | 163° |
| 2026-05-08 23:09 | -29.12564 | -62.38244 | 36987 ft | 476 kts | 163° |
| 2026-05-08 23:10 | -29.18412 | -62.34696 | 36975 ft | 476 kts | 163° |
| 2026-05-08 23:10 | -29.24224 | -62.31165 | 36972 ft | 476 kts | 163° |
| 2026-05-08 23:11 | -29.30069 | -62.27610 | 37041 ft | 476 kts | 163° |
| 2026-05-08 23:11 | -29.35931 | -62.24042 | 36982 ft | 477 kts | 163° |
| 2026-05-08 23:12 | -29.41785 | -62.20471 | 36963 ft | 476 kts | 163° |
| 2026-05-08 23:12 | -29.47640 | -62.16895 | 36975 ft | 477 kts | 163° |
| 2026-05-08 23:13 | -29.53504 | -62.13311 | 37032 ft | 478 kts | 162° |
| 2026-05-08 23:13 | -29.59394 | -62.09706 | 36983 ft | 480 kts | 162° |
| 2026-05-08 23:14 | -29.65293 | -62.06088 | 36969 ft | 480 kts | 162° |
| 2026-05-08 23:14 | -29.71156 | -62.02487 | 36982 ft | 480 kts | 162° |
| 2026-05-08 23:15 | -29.77047 | -61.98866 | 36983 ft | 481 kts | 161° |
| 2026-05-08 23:15 | -29.82948 | -61.95232 | 36984 ft | 480 kts | 161° |
| 2026-05-08 23:16 | -29.88890 | -61.91815 | 36959 ft | 469 kts | 170° |
| 2026-05-08 23:16 | -29.95004 | -61.89554 | 36972 ft | 463 kts | 173° |
| 2026-05-08 23:17 | -30.01186 | -61.87418 | 36979 ft | 464 kts | 172° |
| 2026-05-08 23:17 | -30.07368 | -61.85224 | 36977 ft | 465 kts | 172° |
| 2026-05-08 23:18 | -30.13549 | -61.82977 | 36978 ft | 466 kts | 172° |
| 2026-05-08 23:18 | -30.19703 | -61.80721 | 37011 ft | 467 kts | 171° |
| 2026-05-08 23:19 | -30.25903 | -61.78445 | 36982 ft | 467 kts | 171° |
| 2026-05-08 23:19 | -30.32096 | -61.76170 | 36973 ft | 466 kts | 171° |
| 2026-05-08 23:20 | -30.38281 | -61.73896 | 36972 ft | 466 kts | 171° |
| 2026-05-08 23:20 | -30.44461 | -61.71623 | 36999 ft | 466 kts | 171° |
| 2026-05-08 23:21 | -30.50642 | -61.69346 | 36982 ft | 465 kts | 171° |
| 2026-05-08 23:21 | -30.56818 | -61.67067 | 36970 ft | 465 kts | 171° |
| 2026-05-08 23:22 | -30.62952 | -61.64800 | 36970 ft | 465 kts | 171° |
| 2026-05-08 23:22 | -30.69125 | -61.62517 | 36969 ft | 465 kts | 171° |
| 2026-05-08 23:23 | -30.75286 | -61.60235 | 36973 ft | 465 kts | 171° |
| 2026-05-08 23:23 | -30.81452 | -61.57947 | 36967 ft | 465 kts | 171° |
| 2026-05-08 23:24 | -30.87612 | -61.55659 | 37002 ft | 465 kts | 171° |
| 2026-05-08 23:24 | -30.93787 | -61.53363 | 36974 ft | 466 kts | 170° |
| 2026-05-08 23:25 | -30.99964 | -61.51062 | 36965 ft | 466 kts | 170° |
| 2026-05-08 23:25 | -31.06116 | -61.48767 | 36964 ft | 466 kts | 170° |
| 2026-05-08 23:26 | -31.12305 | -61.46455 | 36986 ft | 467 kts | 169° |
| 2026-05-08 23:26 | -31.18493 | -61.44141 | 36963 ft | 467 kts | 169° |
| 2026-05-08 23:27 | -31.24690 | -61.41819 | 36955 ft | 467 kts | 169° |
| 2026-05-08 23:27 | -31.30844 | -61.39511 | 36956 ft | 467 kts | 169° |
| 2026-05-08 23:28 | -31.37038 | -61.37178 | 36954 ft | 467 kts | 169° |
| 2026-05-08 23:28 | -31.43229 | -61.34836 | 36955 ft | 467 kts | 169° |
| 2026-05-08 23:29 | -31.49407 | -61.32494 | 36937 ft | 466 kts | 169° |
| 2026-05-08 23:29 | -31.55576 | -61.30153 | 36986 ft | 465 kts | 169° |
| 2026-05-08 23:30 | -31.61739 | -61.27813 | 36953 ft | 466 kts | 168° |
| 2026-05-08 23:30 | -31.67873 | -61.25481 | 36945 ft | 466 kts | 168° |
| 2026-05-08 23:31 | -31.74039 | -61.23132 | 36941 ft | 466 kts | 168° |
| 2026-05-08 23:31 | -31.80221 | -61.20776 | 36948 ft | 468 kts | 168° |
| 2026-05-08 23:32 | -31.86419 | -61.18409 | 36945 ft | 469 kts | 168° |
| 2026-05-08 23:32 | -31.92627 | -61.16034 | 36938 ft | 469 kts | 168° |
| 2026-05-08 23:33 | -31.98847 | -61.13651 | 36932 ft | 470 kts | 168° |
| 2026-05-08 23:33 | -32.05063 | -61.11267 | 36936 ft | 470 kts | 168° |
| 2026-05-08 23:34 | -32.11236 | -61.08895 | 36934 ft | 469 kts | 168° |
| 2026-05-08 23:34 | -32.17473 | -61.06496 | 36931 ft | 468 kts | 168° |
| 2026-05-08 23:35 | -32.23631 | -61.04124 | 36943 ft | 468 kts | 167° |
| 2026-05-08 23:35 | -32.29817 | -61.01737 | 36932 ft | 467 kts | 167° |
| 2026-05-08 23:36 | -32.36003 | -60.99348 | 36933 ft | 467 kts | 167° |
| 2026-05-08 23:36 | -32.42186 | -60.96956 | 36926 ft | 467 kts | 167° |
| 2026-05-08 23:37 | -32.47330 | -60.94963 | 36930 ft | 468 kts | 167° |
| 2026-05-08 23:37 | -32.53524 | -60.92561 | 36929 ft | 468 kts | 167° |
| 2026-05-08 23:38 | -32.60731 | -60.89760 | 36922 ft | 469 kts | 167° |
| 2026-05-08 23:38 | -32.66935 | -60.87346 | 36933 ft | 469 kts | 166° |
| 2026-05-08 23:39 | -32.72090 | -60.85337 | 36921 ft | 469 kts | 166° |
| 2026-05-08 23:39 | -32.78302 | -60.82913 | 36914 ft | 470 kts | 166° |
| 2026-05-08 23:40 | -32.84513 | -60.80486 | 36912 ft | 470 kts | 166° |
| 2026-05-08 23:40 | -32.90616 | -60.77634 | 36908 ft | 477 kts | 155° |
| 2026-05-08 23:41 | -32.96001 | -60.72918 | 36920 ft | 483 kts | 143° |
| 2026-05-08 23:41 | -33.01106 | -60.67693 | 36911 ft | 484 kts | 143° |
| 2026-05-08 23:42 | -33.06223 | -60.62466 | 36926 ft | 485 kts | 143° |
| 2026-05-08 23:42 | -33.11372 | -60.57273 | 36911 ft | 485 kts | 143° |
| 2026-05-08 23:43 | -33.16536 | -60.52090 | 36900 ft | 485 kts | 143° |
| 2026-05-08 23:43 | -33.21666 | -60.46939 | 36895 ft | 485 kts | 143° |
| 2026-05-08 23:44 | -33.26831 | -60.41741 | 36904 ft | 485 kts | 143° |
| 2026-05-08 23:44 | -33.31990 | -60.36537 | 36888 ft | 485 kts | 143° |
| 2026-05-08 23:45 | -33.37143 | -60.31331 | 36888 ft | 485 kts | 143° |
| 2026-05-08 23:45 | -33.42300 | -60.26113 | 36892 ft | 485 kts | 143° |
| 2026-05-08 23:46 | -33.44875 | -60.23504 | 36722 ft | 487 kts | 142° |
| 2026-05-08 23:46 | -33.47477 | -60.20868 | 36152 ft | 490 kts | 142° |
| 2026-05-08 23:46 | -33.50069 | -60.18237 | 35562 ft | 488 kts | 142° |
| 2026-05-08 23:46 | -33.52630 | -60.15636 | 34898 ft | 488 kts | 142° |
| 2026-05-08 23:47 | -33.55221 | -60.13002 | 34218 ft | 489 kts | 142° |
| 2026-05-08 23:47 | -33.57859 | -60.10319 | 33424 ft | 491 kts | 141° |
| 2026-05-08 23:47 | -33.60460 | -60.07672 | 32662 ft | 490 kts | 141° |
| 2026-05-08 23:47 | -33.63014 | -60.05046 | 31785 ft | 490 kts | 139° |
| 2026-05-08 23:48 | -33.65368 | -60.02071 | 30799 ft | 488 kts | 130° |
| 2026-05-08 23:48 | -33.67503 | -59.98972 | 30442 ft | 476 kts | 129° |
| 2026-05-08 23:48 | -33.69582 | -59.95887 | 29832 ft | 473 kts | 129° |
| 2026-05-08 23:48 | -33.71634 | -59.92837 | 29245 ft | 467 kts | 129° |
| 2026-05-08 23:49 | -33.73672 | -59.89830 | 28722 ft | 461 kts | 130° |
| 2026-05-08 23:49 | -33.75699 | -59.86864 | 28197 ft | 455 kts | 130° |
| 2026-05-08 23:49 | -33.77700 | -59.83955 | 27704 ft | 449 kts | 131° |
| 2026-05-08 23:49 | -33.79686 | -59.81079 | 27164 ft | 445 kts | 131° |
| 2026-05-08 23:50 | -33.81633 | -59.78265 | 26679 ft | 441 kts | 131° |
| 2026-05-08 23:50 | -33.83587 | -59.75441 | 26168 ft | 437 kts | 131° |
| 2026-05-08 23:50 | -33.85524 | -59.72639 | 25666 ft | 433 kts | 132° |
| 2026-05-08 23:50 | -33.87444 | -59.69860 | 25172 ft | 430 kts | 132° |
| 2026-05-08 23:51 | -33.89354 | -59.67091 | 24689 ft | 427 kts | 132° |
| 2026-05-08 23:51 | -33.91244 | -59.64349 | 24204 ft | 425 kts | 133° |
| 2026-05-08 23:51 | -33.93121 | -59.61623 | 23731 ft | 422 kts | 133° |
| 2026-05-08 23:51 | -33.94994 | -59.58903 | 23202 ft | 421 kts | 133° |
| 2026-05-08 23:52 | -33.96856 | -59.56195 | 22645 ft | 418 kts | 133° |
| 2026-05-08 23:52 | -33.98705 | -59.53504 | 22148 ft | 415 kts | 133° |
| 2026-05-08 23:52 | -34.00517 | -59.50864 | 21670 ft | 412 kts | 134° |
| 2026-05-08 23:52 | -34.02360 | -59.48177 | 21174 ft | 409 kts | 134° |
| 2026-05-08 23:53 | -34.04165 | -59.45544 | 20693 ft | 406 kts | 134° |
| 2026-05-08 23:53 | -34.05939 | -59.42954 | 20232 ft | 404 kts | 134° |
| 2026-05-08 23:53 | -34.07723 | -59.40349 | 19766 ft | 402 kts | 134° |
| 2026-05-08 23:53 | -34.09499 | -59.37752 | 19304 ft | 400 kts | 134° |
| 2026-05-08 23:54 | -34.11267 | -59.35166 | 18850 ft | 399 kts | 134° |
| 2026-05-08 23:54 | -34.13032 | -59.32584 | 18377 ft | 398 kts | 134° |
| 2026-05-08 23:54 | -34.14787 | -59.30013 | 17867 ft | 397 kts | 134° |
| 2026-05-08 23:55 | -34.18280 | -59.24890 | 16875 ft | 392 kts | 134° |
| 2026-05-08 23:55 | -34.20007 | -59.22353 | 16407 ft | 389 kts | 134° |
| 2026-05-08 23:55 | -34.21719 | -59.19838 | 15950 ft | 386 kts | 134° |
| 2026-05-08 23:55 | -34.23396 | -59.17371 | 15493 ft | 383 kts | 134° |
| 2026-05-08 23:56 | -34.25083 | -59.14890 | 15052 ft | 380 kts | 134° |
| 2026-05-08 23:56 | -34.26757 | -59.12426 | 14620 ft | 378 kts | 134° |
| 2026-05-08 23:56 | -34.28419 | -59.09977 | 14170 ft | 376 kts | 134° |
| 2026-05-08 23:56 | -34.30075 | -59.07535 | 13716 ft | 374 kts | 134° |
| 2026-05-08 23:57 | -34.31719 | -59.05110 | 13238 ft | 371 kts | 133° |
| 2026-05-08 23:57 | -34.33355 | -59.02695 | 12748 ft | 369 kts | 133° |
| 2026-05-08 23:57 | -34.34973 | -59.00306 | 12313 ft | 365 kts | 133° |
| 2026-05-08 23:57 | -34.36574 | -58.97939 | 11869 ft | 362 kts | 132° |
| 2026-05-08 23:58 | -34.38163 | -58.95588 | 11449 ft | 359 kts | 132° |
| 2026-05-08 23:58 | -34.39737 | -58.93258 | 11005 ft | 356 kts | 132° |
| 2026-05-08 23:58 | -34.41299 | -58.90944 | 10580 ft | 354 kts | 132° |
| 2026-05-08 23:58 | -34.42831 | -58.88672 | 10430 ft | 343 kts | 131° |
| 2026-05-08 23:59 | -34.44319 | -58.86464 | 10272 ft | 333 kts | 131° |
| 2026-05-08 23:59 | -34.45763 | -58.84320 | 10141 ft | 321 kts | 131° |
| 2026-05-08 23:59 | -34.47127 | -58.82292 | 10000 ft | 307 kts | 131° |
| 2026-05-08 23:59 | -34.48452 | -58.80323 | 9875 ft | 295 kts | 131° |
| 2026-05-09 00:00 | -34.49726 | -58.78429 | 9731 ft | 287 kts | 131° |
| 2026-05-09 00:00 | -34.50991 | -58.76549 | 9425 ft | 287 kts | 131° |
| 2026-05-09 00:00 | -34.52250 | -58.74677 | 9148 ft | 286 kts | 132° |
| 2026-05-09 00:00 | -34.53503 | -58.72812 | 8869 ft | 284 kts | 132° |
| 2026-05-09 00:01 | -34.54750 | -58.70955 | 8600 ft | 283 kts | 133° |
| 2026-05-09 00:01 | -34.55991 | -58.69105 | 8323 ft | 282 kts | 133° |
| 2026-05-09 00:01 | -34.57233 | -58.67254 | 8046 ft | 281 kts | 133° |
| 2026-05-09 00:01 | -34.58467 | -58.65413 | 7769 ft | 280 kts | 134° |
| 2026-05-09 00:02 | -34.59681 | -58.63600 | 7496 ft | 279 kts | 134° |
| 2026-05-09 00:02 | -34.60897 | -58.61764 | 7211 ft | 280 kts | 131° |
| 2026-05-09 00:02 | -34.61757 | -58.59623 | 6938 ft | 286 kts | 112° |
| 2026-05-09 00:02 | -34.62351 | -58.57319 | 6676 ft | 286 kts | 111° |
| 2026-05-09 00:03 | -34.62934 | -58.55010 | 6400 ft | 286 kts | 112° |
| 2026-05-09 00:03 | -34.63516 | -58.52727 | 6252 ft | 280 kts | 112° |
| 2026-05-09 00:03 | -34.64097 | -58.50479 | 5990 ft | 279 kts | 112° |
| 2026-05-09 00:03 | -34.64684 | -58.48234 | 5734 ft | 278 kts | 113° |
| 2026-05-09 00:04 | -34.65271 | -58.46008 | 5477 ft | 276 kts | 112° |
| 2026-05-09 00:04 | -34.65857 | -58.43787 | 5220 ft | 275 kts | 112° |
| 2026-05-09 00:04 | -34.66436 | -58.41601 | 4982 ft | 274 kts | 113° |
| 2026-05-09 00:04 | -34.67010 | -58.39427 | 4863 ft | 267 kts | 113° |
| 2026-05-09 00:05 | -34.67573 | -58.37302 | 4733 ft | 261 kts | 113° |
| 2026-05-09 00:05 | -34.68121 | -58.35229 | 4616 ft | 254 kts | 114° |
| 2026-05-09 00:05 | -34.68654 | -58.33214 | 4496 ft | 246 kts | 114° |
| 2026-05-09 00:05 | -34.69170 | -58.31261 | 4349 ft | 241 kts | 114° |
| 2026-05-09 00:06 | -34.69682 | -58.29325 | 4124 ft | 238 kts | 115° |
| 2026-05-09 00:06 | -34.70073 | -58.27415 | 3923 ft | 237 kts | 96° |
| 2026-05-09 00:06 | -34.69638 | -58.25504 | 3668 ft | 236 kts | 54° |
| 2026-05-09 00:06 | -34.68456 | -58.24259 | 3519 ft | 219 kts | 18° |
| 2026-05-09 00:07 | -34.67040 | -58.23806 | 3319 ft | 203 kts | 350° |
| 2026-05-09 00:07 | -34.65814 | -58.24262 | 3090 ft | 172 kts | 313° |
| 2026-05-09 00:07 | -34.65065 | -58.25248 | 2905 ft | 151 kts | 292° |
| 2026-05-09 00:07 | -34.64478 | -58.26296 | 2748 ft | 149 kts | 294° |
| 2026-05-09 00:08 | -34.63890 | -58.27326 | 2577 ft | 148 kts | 294° |
| 2026-05-09 00:08 | -34.63311 | -58.28351 | 2478 ft | 145 kts | 294° |
| 2026-05-09 00:08 | -34.62753 | -58.29343 | 2294 ft | 139 kts | 293° |
| 2026-05-09 00:08 | -34.62235 | -58.30265 | 2114 ft | 125 kts | 292° |
| 2026-05-09 00:09 | -34.61742 | -58.31151 | 1925 ft | 128 kts | 293° |
| 2026-05-09 00:09 | -34.61252 | -58.32028 | 1754 ft | 124 kts | 292° |
| 2026-05-09 00:09 | -34.60775 | -58.32883 | 1588 ft | 122 kts | 293° |
| 2026-05-09 00:09 | -34.60296 | -58.33740 | 1441 ft | 123 kts | 293° |
| 2026-05-09 00:10 | -34.59817 | -58.34599 | 1265 ft | 123 kts | 294° |
| 2026-05-09 00:10 | -34.59334 | -58.35463 | 1105 ft | 124 kts | 295° |
| 2026-05-09 00:10 | -34.58851 | -58.36329 | 942 ft | 124 kts | 296° |
| 2026-05-09 00:10 | -34.58353 | -58.37225 | 762 ft | 133 kts | 300° |
| 2026-05-09 00:11 | -34.57836 | -58.38151 | 584 ft | 134 kts | 301° |
| 2026-05-09 00:11 | -34.57302 | -58.39108 | 392 ft | 134 kts | 302° |
| 2026-05-09 00:11 | -34.56791 | -58.40017 | 185 ft | 130 kts | 301° |
| 2026-05-09 00:11 | -34.56296 | -58.40914 | 40 ft | 127 kts | 302° |
| 2026-05-09 00:12 | -34.55860 | -58.41695 | 23 ft | 87 kts | 304° |
| 2026-05-09 00:12 | -34.55607 | -58.42144 | 30 ft | 45 kts | 304° |
| 2026-05-09 00:12 | -34.55466 | -58.42400 | 27 ft | 30 kts | 303° |
| 2026-05-09 00:12 | -34.55377 | -58.42493 | 24 ft | 14 kts | 27° |
| 2026-05-09 00:13 | -34.55366 | -58.42410 | 24 ft | 6 kts | 98° |
| 2026-05-09 00:13 | -34.55379 | -58.42362 | 27 ft | 6 kts | 121° |
| 2026-05-09 00:13 | -34.55403 | -58.42322 | 27 ft | 6 kts | 127° |
| 2026-05-09 00:13 | -34.55427 | -58.42283 | 24 ft | 6 kts | 126° |
| 2026-05-09 00:14 | -34.55450 | -58.42244 | 28 ft | 6 kts | 126° |
| 2026-05-09 00:14 | -34.55477 | -58.42201 | 27 ft | 9 kts | 128° |
| 2026-05-09 00:14 | -34.55534 | -58.42110 | 24 ft | 16 kts | 127° |
| 2026-05-09 00:14 | -34.55599 | -58.42002 | 26 ft | 15 kts | 124° |
| 2026-05-09 00:15 | -34.55657 | -58.41896 | 29 ft | 15 kts | 124° |
| 2026-05-09 00:15 | -34.55714 | -58.41795 | 25 ft | 14 kts | 124° |
| 2026-05-09 00:15 | -34.55761 | -58.41692 | 24 ft | 14 kts | 116° |
| 2026-05-09 00:15 | -34.55802 | -58.41592 | 25 ft | 13 kts | 117° |
| 2026-05-09 00:16 | -34.55842 | -58.41496 | 26 ft | 13 kts | 116° |
| 2026-05-09 00:16 | -34.55882 | -58.41402 | 25 ft | 12 kts | 117° |
| 2026-05-09 00:16 | -34.55895 | -58.41308 | 24 ft | 12 kts | 47° |
| 2026-05-09 00:16 | -34.55823 | -58.41270 | 24 ft | 8 kts | 31° |
| 2026-05-09 00:17 | -34.55812 | -58.41261 | 24 ft | 3 kts | 34° |
| 2026-05-09 00:17 | -34.55802 | -58.41253 | 24 ft | 0 kts | 35° |